createdAt,value
2022-12-18T00:01:43.874Z,1.89
2022-12-18T00:04:23.195Z,1.82
2022-12-18T00:06:50.210Z,1.71
2022-12-18T00:09:16.879Z,1.58
2022-12-18T00:11:43.372Z,1.80
2022-12-18T00:14:12.596Z,1.93
2022-12-18T00:16:39.259Z,2.06
2022-12-18T00:19:06.946Z,2.19
2022-12-18T00:21:34.498Z,2.07
2022-12-18T00:24:01.435Z,2.21
2022-12-18T00:26:33.255Z,2.13
2022-12-18T00:29:05.737Z,2.23
2022-12-18T00:31:32.551Z,2.28
2022-12-18T00:33:59.759Z,2.34
2022-12-18T00:36:28.656Z,2.48
2022-12-18T00:38:56.698Z,2.37
2022-12-18T00:41:24.006Z,2.35
2022-12-18T00:43:50.894Z,2.47
2022-12-18T00:46:17.526Z,2.71
2022-12-18T00:48:46.496Z,2.95
2022-12-18T00:51:13.013Z,3.08
2022-12-18T00:53:40.527Z,2.86
2022-12-18T00:56:07.498Z,3.04
2022-12-18T00:58:36.883Z,3.17
2022-12-18T01:01:05.609Z,3.40
2022-12-18T01:03:32.118Z,3.56
2022-12-18T01:05:59.276Z,3.54
2022-12-18T01:08:26.570Z,3.64
2022-12-18T01:10:53.060Z,3.59
2022-12-18T01:13:23.793Z,3.74
2022-12-18T01:15:51.266Z,3.61
2022-12-18T01:18:17.874Z,3.58
2022-12-18T01:20:44.455Z,3.46
2022-12-18T01:23:14.366Z,3.30
2022-12-18T01:25:41.087Z,3.16
2022-12-18T01:28:07.656Z,3.27
2022-12-18T01:30:34.129Z,3.41
2022-12-18T01:33:00.934Z,3.44
2022-12-18T01:35:27.669Z,3.23
2022-12-18T01:37:57.311Z,3.05
2022-12-18T01:40:24.138Z,2.96
2022-12-18T01:42:54.633Z,3.04
2022-12-18T01:45:28.561Z,2.83
2022-12-18T01:48:07.787Z,2.95
2022-12-18T01:50:40.093Z,2.86
2022-12-18T01:53:11.143Z,2.56
2022-12-18T01:55:47.909Z,2.76
2022-12-18T01:58:14.711Z,2.84
2022-12-18T02:00:41.639Z,2.94
2022-12-18T02:03:08.334Z,2.80
2022-12-18T02:05:46.869Z,2.64
2022-12-18T02:08:38.746Z,2.62
2022-12-18T02:11:27.420Z,2.79
2022-12-18T02:14:07.530Z,2.82
2022-12-18T02:16:46.823Z,2.71
2022-12-18T02:19:59.306Z,2.56
2022-12-18T02:22:54.923Z,2.74
2022-12-18T02:25:41.686Z,2.78
2022-12-18T02:28:11.675Z,2.72
2022-12-18T02:30:39.081Z,2.92
2022-12-18T02:33:08.082Z,2.49
2022-12-18T02:35:35.753Z,2.74
2022-12-18T02:38:04.258Z,2.80
2022-12-18T02:40:31.452Z,2.83
2022-12-18T02:43:04.523Z,2.65
2022-12-18T02:45:31.084Z,2.48
2022-12-18T02:47:57.579Z,2.55
2022-12-18T02:50:32.664Z,2.58
2022-12-18T02:53:15.014Z,2.69
2022-12-18T02:55:55.140Z,2.64
2022-12-18T02:58:49.455Z,2.71
2022-12-18T03:01:22.970Z,2.78
2022-12-18T03:03:54.802Z,2.98
2022-12-18T03:06:38.339Z,3.03
2022-12-18T03:09:09.609Z,2.82
2022-12-18T03:11:39.792Z,2.84
2022-12-18T03:14:08.050Z,2.69
2022-12-18T03:16:35.564Z,2.62
2022-12-18T03:19:05.243Z,2.49
2022-12-18T03:21:55.532Z,2.36
2022-12-18T03:24:23.122Z,2.20
2022-12-18T03:26:54.635Z,1.95
2022-12-18T03:29:25.948Z,2.06
2022-12-18T03:31:59.331Z,2.22
2022-12-18T03:34:35.010Z,2.25
2022-12-18T03:37:02.487Z,2.25
2022-12-18T03:39:29.066Z,2.11
2022-12-18T03:42:06.662Z,2.00
2022-12-18T03:44:56.437Z,1.92
2022-12-18T03:47:29.881Z,1.78
2022-12-18T03:50:22.844Z,1.68
2022-12-18T03:53:08.546Z,1.71
2022-12-18T03:55:35.905Z,1.77
2022-12-18T03:58:03.750Z,1.73
2022-12-18T04:00:30.811Z,1.57
2022-12-18T04:02:58.046Z,1.51
2022-12-18T04:05:26.736Z,1.54
2022-12-18T04:07:54.286Z,1.64
2022-12-18T04:10:20.794Z,1.75
2022-12-18T04:12:59.334Z,1.89
2022-12-18T04:15:38.635Z,1.72
2022-12-18T04:18:09.055Z,1.82
2022-12-18T04:20:35.567Z,1.96
2022-12-18T04:23:02.082Z,1.87
2022-12-18T04:25:28.558Z,1.55
2022-12-18T04:27:55.268Z,1.70
2022-12-18T04:30:21.865Z,1.62
2022-12-18T04:32:52.155Z,1.62
2022-12-18T04:35:19.026Z,1.64
2022-12-18T04:37:45.531Z,1.53
2022-12-18T04:40:12.814Z,1.52
2022-12-18T04:42:40.782Z,1.45
2022-12-18T04:45:08.307Z,1.36
2022-12-18T04:47:34.770Z,1.24
2022-12-18T04:50:01.350Z,1.25
2022-12-18T04:52:28.103Z,1.37
2022-12-18T04:54:54.701Z,1.56
2022-12-18T04:57:21.440Z,1.56
2022-12-18T04:59:47.959Z,1.75
2022-12-18T05:02:14.597Z,1.86
2022-12-18T05:04:41.251Z,1.86
2022-12-18T05:07:07.772Z,1.92
2022-12-18T05:09:34.292Z,1.99
2022-12-18T05:12:00.763Z,2.21
2022-12-18T05:14:27.290Z,2.36
2022-12-18T05:16:56.777Z,2.39
2022-12-18T05:19:27.091Z,2.51
2022-12-18T05:21:53.580Z,2.69
2022-12-18T05:24:20.351Z,2.56
2022-12-18T05:26:46.835Z,2.51
2022-12-18T05:29:13.597Z,2.45
2022-12-18T05:31:40.709Z,2.21
2022-12-18T05:34:08.828Z,2.19
2022-12-18T05:36:35.496Z,2.07
2022-12-18T05:39:02.166Z,1.98
2022-12-18T05:41:28.642Z,1.72
2022-12-18T05:43:55.108Z,1.83
2022-12-18T05:46:24.275Z,1.80
2022-12-18T05:48:51.078Z,1.68
2022-12-18T05:51:20.338Z,1.80
2022-12-18T05:53:47.272Z,1.99
2022-12-18T05:56:16.890Z,2.17
2022-12-18T05:58:44.321Z,2.25
2022-12-18T06:01:17.047Z,2.16
2022-12-18T06:03:44.030Z,2.29
2022-12-18T06:06:22.452Z,2.59
2022-12-18T06:08:50.077Z,2.69
2022-12-18T06:11:21.750Z,2.70
2022-12-18T06:13:58.164Z,2.71
2022-12-18T06:16:26.517Z,2.76
2022-12-18T06:18:53.029Z,2.78
2022-12-18T06:21:19.550Z,2.77
2022-12-18T06:23:46.006Z,2.72
2022-12-18T06:26:13.655Z,2.62
2022-12-18T06:28:40.272Z,2.35
2022-12-18T06:31:07.842Z,2.06
2022-12-18T06:33:35.260Z,2.07
2022-12-18T06:36:12.899Z,2.29
2022-12-18T06:38:41.543Z,2.26
2022-12-18T06:41:13.322Z,1.95
2022-12-18T06:43:40.345Z,1.91
2022-12-18T06:46:07.630Z,2.19
2022-12-18T06:48:34.561Z,2.21
2022-12-18T06:51:01.187Z,2.39
2022-12-18T06:53:27.698Z,2.55
2022-12-18T06:56:03.852Z,2.81
2022-12-18T06:58:33.809Z,2.92
2022-12-18T07:01:01.753Z,2.90
2022-12-18T07:03:28.408Z,2.98
2022-12-18T07:05:56.000Z,2.96
2022-12-18T07:08:22.659Z,2.90
2022-12-18T07:10:52.912Z,2.95
2022-12-18T07:13:23.108Z,2.80
2022-12-18T07:15:49.963Z,2.61
2022-12-18T07:18:16.403Z,2.79
2022-12-18T07:20:42.979Z,2.96
2022-12-18T07:23:09.570Z,3.18
2022-12-18T07:25:37.317Z,3.29
2022-12-18T07:28:04.246Z,3.01
2022-12-18T07:30:30.937Z,2.53
2022-12-18T07:32:57.414Z,2.69
2022-12-18T07:35:25.506Z,2.40
2022-12-18T07:37:52.407Z,2.56
2022-12-18T07:40:18.941Z,2.72
2022-12-18T07:42:45.490Z,3.03
2022-12-18T07:45:12.063Z,3.22
2022-12-18T07:47:38.695Z,3.54
2022-12-18T07:50:07.588Z,3.85
2022-12-18T07:52:34.212Z,4.02
2022-12-18T07:55:00.728Z,4.07
2022-12-18T07:57:49.457Z,3.97
2022-12-18T08:00:14.555Z,4.06
2022-12-18T08:02:42.184Z,3.99
2022-12-18T08:05:09.472Z,4.19
2022-12-18T08:07:35.951Z,4.14
2022-12-18T08:10:02.479Z,3.86
2022-12-18T08:12:29.064Z,4.03
2022-12-18T08:14:55.640Z,4.24
2022-12-18T08:17:22.111Z,4.23
2022-12-18T08:19:52.056Z,4.31
2022-12-18T08:22:18.555Z,4.13
2022-12-18T08:24:45.783Z,4.39
2022-12-18T08:27:28.858Z,4.59
2022-12-18T08:29:56.877Z,4.68
2022-12-18T08:32:24.224Z,4.09
2022-12-18T08:34:50.945Z,4.45
2022-12-18T08:37:17.426Z,4.48
2022-12-18T08:39:44.304Z,4.58
2022-12-18T08:42:13.715Z,4.69
2022-12-18T08:44:40.284Z,4.68
2022-12-18T08:47:07.694Z,4.93
2022-12-18T08:49:35.174Z,5.25
2022-12-18T08:52:02.140Z,5.35
2022-12-18T08:54:28.656Z,5.44
2022-12-18T08:56:55.222Z,5.40
2022-12-18T08:59:21.679Z,5.27
2022-12-18T09:01:48.377Z,5.46
2022-12-18T09:04:15.076Z,5.64
2022-12-18T09:06:42.087Z,5.46
2022-12-18T09:09:09.705Z,5.40
2022-12-18T09:11:36.198Z,5.24
2022-12-18T09:14:02.800Z,5.21
2022-12-18T09:16:32.349Z,5.28
2022-12-18T09:19:00.647Z,4.94
2022-12-18T09:21:29.482Z,5.07
2022-12-18T09:23:56.528Z,5.19
2022-12-18T09:26:23.928Z,5.49
2022-12-18T09:28:50.744Z,5.51
2022-12-18T09:31:19.629Z,5.59
2022-12-18T09:33:46.123Z,5.49
2022-12-18T09:36:16.068Z,5.71
2022-12-18T09:38:45.210Z,5.75
2022-12-18T09:41:20.663Z,6.02
2022-12-18T09:43:51.215Z,6.00
2022-12-18T09:46:22.737Z,5.84
2022-12-18T09:48:52.291Z,5.81
2022-12-18T09:51:27.060Z,5.83
2022-12-18T09:53:58.553Z,5.83
2022-12-18T09:56:29.626Z,5.60
2022-12-18T09:58:59.711Z,5.70
2022-12-18T10:01:33.985Z,5.37
2022-12-18T10:04:09.080Z,5.18
2022-12-18T10:06:53.799Z,5.16
2022-12-18T10:09:39.501Z,4.86
2022-12-18T10:12:18.248Z,4.99
2022-12-18T10:14:52.573Z,5.20
2022-12-18T10:17:28.097Z,4.93
2022-12-18T10:20:02.781Z,5.14
2022-12-18T10:22:50.208Z,5.01
2022-12-18T10:25:23.979Z,5.38
2022-12-18T10:27:54.629Z,5.44
2022-12-18T10:30:23.420Z,5.41
2022-12-18T10:32:49.952Z,5.45
2022-12-18T10:35:27.429Z,5.63
2022-12-18T10:38:08.639Z,5.64
2022-12-18T10:40:56.335Z,5.51
2022-12-18T10:43:29.572Z,5.61
2022-12-18T10:46:00.421Z,5.46
2022-12-18T10:48:27.535Z,5.75
2022-12-18T10:51:10.735Z,5.52
2022-12-18T10:53:41.015Z,5.53
2022-12-18T10:56:08.812Z,5.47
2022-12-18T10:58:39.398Z,5.20
2022-12-18T11:01:13.387Z,5.33
2022-12-18T11:04:09.001Z,5.06
2022-12-18T11:07:00.470Z,5.06
2022-12-18T11:09:35.017Z,5.37
2022-12-18T11:12:04.643Z,5.46
2022-12-18T11:14:36.615Z,5.56
2022-12-18T11:17:25.441Z,5.59
2022-12-18T11:19:54.752Z,5.56
2022-12-18T11:22:26.971Z,5.68
2022-12-18T11:25:29.690Z,5.72
2022-12-18T11:27:49.319Z,5.64
2022-12-18T11:30:25.171Z,5.44
2022-12-18T11:33:05.099Z,5.64
2022-12-18T11:35:31.711Z,5.52
2022-12-18T11:38:03.785Z,5.63
2022-12-18T11:40:41.029Z,5.84
2022-12-18T11:43:12.895Z,6.02
2022-12-18T11:45:49.707Z,5.97
2022-12-18T11:48:23.635Z,6.04
2022-12-18T11:50:55.603Z,6.33
2022-12-18T11:53:22.563Z,6.48
2022-12-18T11:56:13.902Z,6.46
2022-12-18T11:59:25.127Z,6.23
2022-12-18T12:01:52.182Z,6.32
2022-12-18T12:04:48.074Z,6.37
2022-12-18T12:07:35.859Z,6.54
2022-12-18T12:10:05.265Z,6.44
2022-12-18T12:13:02.355Z,6.50
2022-12-18T12:15:35.802Z,6.45
2022-12-18T12:18:11.231Z,6.43
2022-12-18T12:20:43.268Z,6.27
2022-12-18T12:23:27.350Z,6.30
2022-12-18T12:26:00.539Z,6.26
2022-12-18T12:28:42.696Z,6.44
2022-12-18T12:31:12.375Z,6.08
2022-12-18T12:33:53.172Z,5.94
2022-12-18T12:37:07.302Z,6.13
2022-12-18T12:39:38.502Z,6.19
2022-12-18T12:42:16.765Z,6.22
2022-12-18T12:44:56.421Z,6.18
2022-12-18T12:47:28.715Z,6.29
2022-12-18T12:49:57.906Z,6.51
2022-12-18T12:53:00.646Z,6.53
2022-12-18T12:55:29.019Z,6.46
2022-12-18T12:58:22.495Z,6.56
2022-12-18T13:01:10.328Z,6.89
2022-12-18T13:03:49.938Z,7.30
2022-12-18T13:06:30.319Z,7.39
2022-12-18T13:08:59.475Z,7.48
2022-12-18T13:11:31.022Z,7.09
2022-12-18T13:13:57.818Z,7.24
2022-12-18T13:16:26.772Z,7.24
2022-12-18T13:18:55.017Z,6.91
2022-12-18T13:21:33.820Z,6.84
2022-12-18T13:24:25.967Z,6.61
2022-12-18T13:26:53.024Z,6.60
2022-12-18T13:29:45.224Z,6.65
2022-12-18T13:32:24.155Z,6.44
2022-12-18T13:35:34.776Z,6.05
2022-12-18T13:38:01.857Z,6.15
2022-12-18T13:40:40.768Z,6.27
2022-12-18T13:43:19.767Z,6.10
2022-12-18T13:46:03.162Z,5.69
2022-12-18T13:48:33.171Z,5.68
2022-12-18T13:51:04.497Z,5.75
2022-12-18T13:53:35.536Z,6.02
2022-12-18T13:56:03.713Z,6.06
2022-12-18T13:58:30.423Z,6.13
2022-12-18T14:00:57.245Z,6.14
2022-12-18T14:03:26.093Z,6.16
2022-12-18T14:05:55.580Z,5.79
2022-12-18T14:08:22.192Z,5.30
2022-12-18T14:10:50.392Z,5.53
2022-12-18T14:13:29.959Z,5.57
2022-12-18T14:16:07.718Z,5.67
2022-12-18T14:18:44.911Z,5.88
2022-12-18T14:21:23.607Z,5.83
2022-12-18T14:23:50.499Z,5.89
2022-12-18T14:26:28.628Z,6.05
2022-12-18T14:28:58.608Z,6.01
2022-12-18T14:31:26.824Z,5.81
2022-12-18T14:33:54.150Z,5.93
2022-12-18T14:36:28.239Z,5.75
2022-12-18T14:38:59.214Z,5.45
2022-12-18T14:41:26.515Z,5.56
2022-12-18T14:43:54.978Z,5.74
2022-12-18T14:46:36.677Z,5.82
2022-12-18T14:49:35.452Z,5.76
2022-12-18T14:52:05.536Z,5.55
2022-12-18T14:54:35.077Z,5.48
2022-12-18T14:57:26.847Z,5.62
2022-12-18T14:59:53.794Z,5.78
2022-12-18T15:02:28.218Z,5.88
2022-12-18T15:05:30.623Z,6.02
2022-12-18T15:07:59.639Z,6.08
2022-12-18T15:10:28.504Z,5.82
2022-12-18T15:12:57.978Z,5.95
2022-12-18T15:15:38.364Z,5.80
2022-12-18T15:18:07.892Z,5.64
2022-12-18T15:20:46.452Z,5.60
2022-12-18T15:23:44.840Z,5.55
2022-12-18T15:26:13.720Z,5.53
2022-12-18T15:28:56.734Z,5.39
2022-12-18T15:31:26.330Z,5.39
2022-12-18T15:33:52.819Z,5.38
2022-12-18T15:36:26.217Z,5.31
2022-12-18T15:38:55.021Z,5.21
2022-12-18T15:41:24.885Z,5.21
2022-12-18T15:43:53.408Z,5.21
2022-12-18T15:46:23.614Z,5.19
2022-12-18T15:48:51.239Z,5.21
2022-12-18T15:51:40.238Z,4.85
2022-12-18T15:54:12.539Z,4.72
2022-12-18T15:56:39.060Z,4.47
2022-12-18T15:59:15.076Z,4.57
2022-12-18T16:01:43.094Z,4.49
2022-12-18T16:04:13.987Z,4.31
2022-12-18T16:07:12.718Z,4.53
2022-12-18T16:09:27.411Z,4.68
2022-12-18T16:11:54.113Z,4.72
2022-12-18T16:14:23.307Z,4.87
2022-12-18T16:16:53.346Z,5.00
2022-12-18T16:19:20.403Z,5.04
2022-12-18T16:21:47.276Z,4.99
2022-12-18T16:24:21.862Z,5.08
2022-12-18T16:26:48.885Z,5.16
2022-12-18T16:29:15.636Z,5.22
2022-12-18T16:31:44.950Z,5.08
2022-12-18T16:34:20.207Z,5.05
2022-12-18T16:36:50.431Z,5.05
2022-12-18T16:39:17.490Z,5.07
2022-12-18T16:41:44.044Z,4.88
2022-12-18T16:44:10.603Z,4.75
2022-12-18T16:46:39.250Z,5.08
2022-12-18T16:49:06.295Z,4.99
2022-12-18T16:51:33.051Z,5.13
2022-12-18T16:53:59.534Z,5.23
2022-12-18T16:56:26.119Z,5.21
2022-12-18T16:58:53.771Z,5.33
2022-12-18T17:01:20.409Z,5.26
2022-12-18T17:03:59.866Z,5.35
2022-12-18T17:06:27.760Z,5.36
2022-12-18T17:09:01.987Z,5.37
2022-12-18T17:11:30.312Z,5.44
2022-12-18T17:13:57.128Z,5.44
2022-12-18T17:16:25.052Z,5.37
2022-12-18T17:18:52.917Z,5.16
2022-12-18T17:21:19.761Z,4.99
2022-12-18T17:23:46.367Z,4.97
2022-12-18T17:26:13.560Z,5.08
2022-12-18T17:28:41.104Z,5.18
2022-12-18T17:31:27.714Z,5.38
2022-12-18T17:33:54.549Z,5.23
2022-12-18T17:36:21.151Z,5.17
2022-12-18T17:38:55.983Z,5.32
2022-12-18T17:41:23.328Z,5.26
2022-12-18T17:43:56.628Z,5.31
2022-12-18T17:46:23.836Z,5.04
2022-12-18T17:48:50.369Z,5.21
2022-12-18T17:51:17.587Z,5.14
2022-12-18T17:53:44.892Z,5.25
2022-12-18T17:56:16.597Z,5.23
2022-12-18T17:58:44.838Z,5.17
2022-12-18T18:01:15.427Z,5.13
2022-12-18T18:03:43.486Z,4.94
2022-12-18T18:06:10.313Z,4.55
2022-12-18T18:08:37.295Z,4.50
2022-12-18T18:11:06.387Z,4.51
2022-12-18T18:13:37.831Z,4.52
2022-12-18T18:16:07.068Z,4.64
2022-12-18T18:18:33.642Z,4.75
2022-12-18T18:21:07.141Z,4.69
2022-12-18T18:23:35.143Z,4.75
2022-12-18T18:26:09.336Z,4.95
2022-12-18T18:28:36.433Z,4.92
2022-12-18T18:31:06.837Z,5.00
2022-12-18T18:33:34.785Z,5.07
2022-12-18T18:36:01.516Z,4.96
2022-12-18T18:38:28.500Z,4.99
2022-12-18T18:41:00.132Z,5.05
2022-12-18T18:43:26.834Z,4.97
2022-12-18T18:45:59.638Z,4.99
2022-12-18T18:48:28.752Z,5.01
2022-12-18T18:51:05.786Z,4.93
2022-12-18T18:53:36.581Z,4.79
2022-12-18T18:56:37.762Z,4.78
2022-12-18T18:58:49.983Z,4.87
2022-12-18T19:01:18.044Z,4.92
2022-12-18T19:03:45.482Z,4.79
2022-12-18T19:06:15.363Z,4.73
2022-12-18T19:08:42.399Z,4.98
2022-12-18T19:11:11.145Z,4.88
2022-12-18T19:13:37.839Z,4.83
2022-12-18T19:16:07.271Z,4.82
2022-12-18T19:18:34.521Z,4.67
2022-12-18T19:21:02.823Z,4.56
2022-12-18T19:23:30.065Z,4.56
2022-12-18T19:26:17.065Z,4.69
2022-12-18T19:28:47.304Z,4.87
2022-12-18T19:31:19.949Z,4.93
2022-12-18T19:33:52.162Z,5.10
2022-12-18T19:36:20.211Z,5.15
2022-12-18T19:38:48.400Z,4.70
2022-12-18T19:41:15.737Z,4.74
2022-12-18T19:43:42.662Z,4.88
2022-12-18T19:46:11.840Z,4.94
2022-12-18T19:48:38.864Z,4.94
2022-12-18T19:51:11.219Z,5.19
2022-12-18T19:53:37.774Z,5.39
2022-12-18T19:56:13.036Z,5.52
2022-12-18T19:58:40.007Z,5.60
2022-12-18T20:01:07.078Z,5.66
2022-12-18T20:03:35.722Z,5.55
2022-12-18T20:06:32.752Z,5.55
2022-12-18T20:09:04.951Z,5.52
2022-12-18T20:11:32.636Z,5.57
2022-12-18T20:13:59.147Z,5.55
2022-12-18T20:16:25.781Z,5.47
2022-12-18T20:18:56.741Z,5.67
2022-12-18T20:21:26.260Z,5.51
2022-12-18T20:23:52.821Z,5.68
2022-12-18T20:26:19.326Z,5.71
2022-12-18T20:28:45.897Z,5.56
2022-12-18T20:31:16.545Z,5.75
2022-12-18T20:33:43.379Z,5.75
2022-12-18T20:36:23.588Z,5.51
2022-12-18T20:38:52.809Z,5.62
2022-12-18T20:41:24.008Z,5.64
2022-12-18T20:43:50.864Z,5.78
2022-12-18T20:46:20.624Z,5.78
2022-12-18T20:48:47.217Z,5.93
2022-12-18T20:51:16.883Z,5.99
2022-12-18T20:53:43.973Z,5.73
2022-12-18T20:56:13.295Z,5.90
2022-12-18T20:58:48.309Z,5.97
2022-12-18T21:01:17.906Z,6.06
2022-12-18T21:03:45.175Z,5.77
2022-12-18T21:06:12.375Z,5.84
2022-12-18T21:08:39.133Z,5.93
2022-12-18T21:11:32.756Z,6.03
2022-12-18T21:13:59.663Z,6.07
2022-12-18T21:16:27.037Z,6.08
2022-12-18T21:18:53.547Z,6.08
2022-12-18T21:21:26.256Z,5.98
2022-12-18T21:23:53.885Z,5.98
2022-12-18T21:26:25.671Z,5.94
2022-12-18T21:28:57.870Z,5.88
2022-12-18T21:31:26.827Z,5.94
2022-12-18T21:33:57.394Z,6.01
2022-12-18T21:36:28.650Z,5.78
2022-12-18T21:38:55.632Z,5.89
2022-12-18T21:41:23.552Z,5.96
2022-12-18T21:43:50.132Z,5.99
2022-12-18T21:46:16.683Z,6.01
2022-12-18T21:48:43.226Z,5.90
2022-12-18T21:51:10.123Z,5.89
2022-12-18T21:53:36.643Z,6.06
2022-12-18T21:56:03.245Z,6.16
2022-12-18T21:58:29.726Z,6.22
2022-12-18T22:00:56.268Z,6.26
2022-12-18T22:03:22.916Z,6.07
2022-12-18T22:05:51.433Z,5.91
2022-12-18T22:08:33.195Z,6.15
2022-12-18T22:10:59.895Z,6.24
2022-12-18T22:13:26.468Z,6.23
2022-12-18T22:15:53.038Z,6.28
2022-12-18T22:18:19.672Z,6.34
2022-12-18T22:20:46.165Z,6.53
2022-12-18T22:23:13.574Z,6.58
2022-12-18T22:25:40.355Z,6.45
2022-12-18T22:28:06.957Z,6.57
2022-12-18T22:30:33.650Z,6.60
2022-12-18T22:33:00.206Z,6.54
2022-12-18T22:35:26.682Z,6.51
2022-12-18T22:37:53.187Z,6.52
2022-12-18T22:40:26.779Z,6.51
2022-12-18T22:42:54.400Z,6.46
2022-12-18T22:45:27.003Z,6.42
2022-12-18T22:47:53.714Z,6.54
2022-12-18T22:50:20.263Z,6.60
2022-12-18T22:52:46.738Z,6.62
2022-12-18T22:55:13.265Z,6.61
2022-12-18T22:57:39.783Z,6.62
2022-12-18T23:00:09.746Z,6.69
2022-12-18T23:02:36.461Z,6.63
2022-12-18T23:05:03.116Z,6.66
2022-12-18T23:07:29.674Z,6.76
2022-12-18T23:10:00.776Z,6.82
2022-12-18T23:12:27.677Z,6.77
2022-12-18T23:14:54.281Z,6.70
2022-12-18T23:17:20.727Z,6.69
2022-12-18T23:19:49.210Z,6.32
2022-12-18T23:22:16.673Z,6.32
2022-12-18T23:24:43.111Z,6.21
2022-12-18T23:27:11.865Z,6.11
2022-12-18T23:29:39.208Z,6.13
2022-12-18T23:32:05.807Z,6.01
2022-12-18T23:34:32.354Z,6.03
2022-12-18T23:36:58.976Z,6.19
2022-12-18T23:39:29.082Z,6.24
2022-12-18T23:41:59.589Z,6.34
2022-12-18T23:44:26.464Z,6.34
2022-12-18T23:46:53.100Z,6.39
2022-12-18T23:49:19.623Z,6.20
2022-12-18T23:51:46.079Z,6.19
2022-12-18T23:54:12.552Z,6.03
2022-12-18T23:56:39.067Z,6.01
2022-12-18T23:59:05.532Z,6.13
